Time;durP1;ratioP1;P1;durP2;ratioP2;P2;SDS_P1;SDS_P2;PMS_P1;PMS_P2;Temp;Humidity;BMP_temperature;BMP_pressure;BME280_temperature;BME280_humidity;BME280_pressure;Samples;Min_cycle;Max_cycle;Signal;HPM_P1;HPM_P2
2022/11/24 00:00:51;;;;;;;3.00;2.60;;;;;;;;;;4905448;29;20253;-85
2022/11/24 00:03:17;;;;;;;4.60;2.60;;;;;;;;;;4901157;29;20235;-83
2022/11/24 00:05:44;;;;;;;3.63;2.30;;;;;;;;;;4901819;29;20267;-84
2022/11/24 00:08:19;;;;;;;5.27;2.77;;;;;;;;;;4902328;29;20235;-82
2022/11/24 00:10:49;;;;;;;5.93;2.80;;;;;;;;;;4904534;29;20239;-83
2022/11/24 00:13:17;;;;;;;4.87;2.70;;;;;;;;;;4901376;29;20255;-85
2022/11/24 00:15:45;;;;;;;5.07;2.70;;;;;;;;;;4903029;29;20235;-84
2022/11/24 00:18:13;;;;;;;5.53;2.83;;;;;;;;;;4914255;29;20305;-84
2022/11/24 00:20:39;;;;;;;8.53;3.23;;;;;;;;;;4910705;29;20238;-83
2022/11/24 00:23:04;;;;;;;3.40;2.90;;;;;;;;;;4919598;28;20282;-85
2022/11/24 00:25:32;;;;;;;4.63;3.00;;;;;;;;;;4911880;29;20222;-82
2022/11/24 00:28:00;;;;;;;3.20;2.70;;;;;;;;;;4907771;29;20659;-83
2022/11/24 00:30:28;;;;;;;6.80;3.17;;;;;;;;;;4908739;28;20699;-84
2022/11/24 00:32:56;;;;;;;3.17;2.50;;;;;;;;;;4890124;29;20238;-81
2022/11/24 00:35:22;;;;;;;4.03;2.80;;;;;;;;;;4903765;29;20250;-84
2022/11/24 00:37:48;;;;;;;5.53;3.13;;;;;;;;;;4904182;29;20609;-85
2022/11/24 00:40:16;;;;;;;4.57;3.03;;;;;;;;;;4911313;28;20226;-84
2022/11/24 00:42:41;;;;;;;3.90;2.87;;;;;;;;;;4928540;29;20229;-83
2022/11/24 00:45:07;;;;;;;3.33;2.60;;;;;;;;;;4942518;28;20215;-83
2022/11/24 00:47:33;;;;;;;4.30;3.00;;;;;;;;;;4928635;29;20231;-84
2022/11/24 00:50:03;;;;;;;8.07;3.30;;;;;;;;;;4923236;29;20571;-84
2022/11/24 00:52:31;;;;;;;5.20;2.70;;;;;;;;;;4926412;28;20218;-84
2022/11/24 00:54:59;;;;;;;5.00;2.73;;;;;;;;;;4910379;29;20238;-84
2022/11/24 00:57:27;;;;;;;4.80;3.03;;;;;;;;;;4906651;28;20235;-85
2022/11/24 00:59:55;;;;;;;6.07;3.27;;;;;;;;;;4908180;29;20226;-84
2022/11/24 01:02:25;;;;;;;4.03;2.83;;;;;;;;;;4925995;28;20237;-84
2022/11/24 01:04:51;;;;;;;2.80;2.53;;;;;;;;;;4920233;29;20230;-85
2022/11/24 01:07:16;;;;;;;3.53;2.70;;;;;;;;;;4907946;28;20241;-83
2022/11/24 01:09:44;;;;;;;6.37;3.20;;;;;;;;;;4907858;29;20653;-85
2022/11/24 01:12:12;;;;;;;3.30;2.60;;;;;;;;;;4907847;28;20218;-85
2022/11/24 01:14:39;;;;;;;4.20;2.27;;;;;;;;;;4923145;29;20727;-84
2022/11/24 01:17:10;;;;;;;4.50;2.80;;;;;;;;;;4903961;29;20302;-84
2022/11/24 01:19:35;;;;;;;5.80;2.90;;;;;;;;;;4924705;29;20223;-82
2022/11/24 01:22:03;;;;;;;5.80;2.90;;;;;;;;;;4926847;28;20242;-82
2022/11/24 01:24:34;;;;;;;5.33;2.83;;;;;;;;;;4919267;29;20231;-86
2022/11/24 01:26:59;;;;;;;7.07;3.10;;;;;;;;;;4924830;29;20239;-83
2022/11/24 01:29:25;;;;;;;3.20;2.80;;;;;;;;;;4924416;28;20226;-85
2022/11/24 01:31:53;;;;;;;3.03;2.70;;;;;;;;;;4924293;29;20222;-83
2022/11/24 01:34:21;;;;;;;3.10;2.63;;;;;;;;;;4916333;28;20903;-86
2022/11/24 01:36:46;;;;;;;3.00;2.70;;;;;;;;;;4943015;29;20230;-86
2022/11/24 01:39:14;;;;;;;3.10;2.60;;;;;;;;;;4894732;28;20246;-84
2022/11/24 01:41:40;;;;;;;5.70;2.63;;;;;;;;;;4909212;29;20630;-87
2022/11/24 01:44:20;;;;;;;4.40;2.60;;;;;;;;;;4908447;28;20668;-85
2022/11/24 01:46:46;;;;;;;3.77;2.57;;;;;;;;;;4909135;29;20278;-87
2022/11/24 01:49:18;;;;;;;4.07;2.63;;;;;;;;;;4907044;28;20249;-85
2022/11/24 01:51:51;;;;;;;3.77;2.60;;;;;;;;;;4907784;29;20230;-85
2022/11/24 01:54:22;;;;;;;3.63;2.50;;;;;;;;;;4906056;28;20306;-83
2022/11/24 01:56:52;;;;;;;4.07;2.70;;;;;;;;;;4921621;29;20290;-84
2022/11/24 01:59:20;;;;;;;5.13;2.50;;;;;;;;;;4906270;28;20238;-83
2022/11/24 02:01:48;;;;;;;3.70;2.50;;;;;;;;;;4906480;29;20278;-83
2022/11/24 02:04:15;;;;;;;5.00;2.40;;;;;;;;;;4905820;28;20228;-84
2022/11/24 02:06:43;;;;;;;3.80;2.37;;;;;;;;;;4890277;29;20229;-84
2022/11/24 02:09:25;;;;;;;4.10;2.47;;;;;;;;;;4906283;28;20230;-82
2022/11/24 02:11:53;;;;;;;4.33;2.50;;;;;;;;;;4917164;29;20236;-85
2022/11/24 02:14:18;;;;;;;2.90;2.63;;;;;;;;;;4904010;29;20234;-84
2022/11/24 02:16:47;;;;;;;6.03;2.37;;;;;;;;;;4904027;29;20231;-86
2022/11/24 02:19:34;;;;;;;2.80;2.30;;;;;;;;;;4886721;29;20253;-85
2022/11/24 02:21:59;;;;;;;3.80;2.60;;;;;;;;;;4954802;28;20226;-85
2022/11/24 02:24:55;;;;;;;2.73;2.40;;;;;;;;;;4924710;28;20225;-83
2022/11/24 02:27:20;;;;;;;6.87;2.97;;;;;;;;;;4940143;28;20230;-86
2022/11/24 02:29:46;;;;;;;3.90;2.87;;;;;;;;;;4922325;29;20223;-85
2022/11/24 02:32:14;;;;;;;4.87;3.10;;;;;;;;;;4921923;28;20231;-86
2022/11/24 02:34:40;;;;;;;4.00;2.53;;;;;;;;;;4922098;29;20238;-83
2022/11/24 02:37:08;;;;;;;6.50;3.37;;;;;;;;;;4917489;28;20297;-86
2022/11/24 02:39:34;;;;;;;7.90;3.20;;;;;;;;;;4907376;29;20289;-86
2022/11/24 02:42:05;;;;;;;5.03;2.80;;;;;;;;;;4906582;29;20688;-86
2022/11/24 02:44:35;;;;;;;3.30;3.00;;;;;;;;;;4906501;29;20230;-84
2022/11/24 02:47:09;;;;;;;6.03;3.13;;;;;;;;;;4906534;29;20226;-86
2022/11/24 02:49:35;;;;;;;3.33;3.03;;;;;;;;;;4923014;29;20237;-84
2022/11/24 02:52:00;;;;;;;3.90;3.23;;;;;;;;;;4907810;29;20290;-86
2022/11/24 02:54:28;;;;;;;5.03;3.03;;;;;;;;;;4923112;28;20229;-86
2022/11/24 02:56:54;;;;;;;4.90;3.17;;;;;;;;;;4922923;29;20330;-86
2022/11/24 02:59:19;;;;;;;4.10;3.30;;;;;;;;;;4922267;28;20266;-86
2022/11/24 03:01:45;;;;;;;3.47;3.00;;;;;;;;;;4923818;29;20222;-84
2022/11/24 03:04:13;;;;;;;4.23;2.90;;;;;;;;;;4922700;28;20360;-85
2022/11/24 03:06:42;;;;;;;4.03;3.07;;;;;;;;;;4924211;29;20282;-85
2022/11/24 03:09:10;;;;;;;6.73;2.90;;;;;;;;;;4924069;28;20230;-85
2022/11/24 03:11:38;;;;;;;3.27;2.90;;;;;;;;;;4926025;29;20261;-84
2022/11/24 03:14:04;;;;;;;4.37;2.97;;;;;;;;;;4924625;28;20286;-85
2022/11/24 03:16:32;;;;;;;5.37;2.93;;;;;;;;;;4909494;29;20285;-87
2022/11/24 03:19:01;;;;;;;5.83;3.07;;;;;;;;;;4927203;29;20225;-85
2022/11/24 03:21:29;;;;;;;3.77;3.00;;;;;;;;;;4909250;28;20226;-85
2022/11/24 03:23:54;;;;;;;5.30;2.90;;;;;;;;;;4907443;29;20234;-86
2022/11/24 03:26:21;;;;;;;5.60;3.27;;;;;;;;;;4889965;28;20734;-86
2022/11/24 03:28:49;;;;;;;3.93;2.93;;;;;;;;;;4922438;29;20720;-84
2022/11/24 03:31:14;;;;;;;3.47;3.13;;;;;;;;;;4913774;28;20238;-85
2022/11/24 03:33:45;;;;;;;3.87;3.13;;;;;;;;;;4905512;29;20231;-86
2022/11/24 03:36:10;;;;;;;4.60;3.30;;;;;;;;;;4906132;28;20231;-86
2022/11/24 03:38:38;;;;;;;4.77;3.07;;;;;;;;;;4921667;29;20274;-85
2022/11/24 03:41:06;;;;;;;5.03;2.90;;;;;;;;;;4906768;28;20230;-84
2022/11/24 03:43:31;;;;;;;4.93;2.93;;;;;;;;;;4921545;29;20222;-84
2022/11/24 03:45:59;;;;;;;6.37;3.40;;;;;;;;;;4906190;29;20235;-85
2022/11/24 03:48:25;;;;;;;5.43;3.13;;;;;;;;;;4904972;28;20265;-85
2022/11/24 03:50:55;;;;;;;5.57;3.33;;;;;;;;;;4890032;29;20246;-85
2022/11/24 03:53:24;;;;;;;4.80;3.03;;;;;;;;;;4907060;29;20699;-85
2022/11/24 03:55:50;;;;;;;3.90;3.00;;;;;;;;;;4906155;29;20238;-85
2022/11/24 03:58:15;;;;;;;5.47;3.60;;;;;;;;;;4906754;28;20222;-85
2022/11/24 04:00:41;;;;;;;5.27;3.17;;;;;;;;;;4910030;29;20235;-85
2022/11/24 04:03:09;;;;;;;3.60;3.30;;;;;;;;;;4910605;28;20622;-83
2022/11/24 04:05:35;;;;;;;3.43;2.90;;;;;;;;;;4925383;29;20226;-86
2022/11/24 04:08:04;;;;;;;5.60;3.40;;;;;;;;;;4893972;29;20227;-86
2022/11/24 04:10:31;;;;;;;4.53;3.13;;;;;;;;;;4893759;29;20309;-85
2022/11/24 04:12:59;;;;;;;5.90;3.87;;;;;;;;;;4909377;29;20227;-87
2022/11/24 04:15:24;;;;;;;3.33;3.03;;;;;;;;;;4909109;28;20214;-85
2022/11/24 04:17:52;;;;;;;4.00;3.10;;;;;;;;;;4926285;29;20588;-85
2022/11/24 04:20:18;;;;;;;5.97;3.30;;;;;;;;;;4909653;28;20219;-85
2022/11/24 04:22:44;;;;;;;5.43;3.50;;;;;;;;;;4909134;29;20731;-86
2022/11/24 04:25:10;;;;;;;4.07;3.17;;;;;;;;;;4893407;28;20250;-85
2022/11/24 04:27:36;;;;;;;3.50;3.20;;;;;;;;;;4909868;29;20234;-84
2022/11/24 04:30:02;;;;;;;5.87;3.17;;;;;;;;;;4909766;29;20230;-85
2022/11/24 04:32:28;;;;;;;7.30;3.53;;;;;;;;;;4893486;29;20223;-86
2022/11/24 04:34:54;;;;;;;8.70;3.57;;;;;;;;;;4909665;29;20261;-85
2022/11/24 04:37:19;;;;;;;4.07;3.57;;;;;;;;;;4940966;28;20695;-85
2022/11/24 04:39:45;;;;;;;8.90;3.50;;;;;;;;;;4925563;29;20241;-84
2022/11/24 04:42:11;;;;;;;6.40;3.70;;;;;;;;;;4941732;28;20219;-85
2022/11/24 04:44:41;;;;;;;5.73;3.40;;;;;;;;;;4910592;29;20246;-86
2022/11/24 04:47:15;;;;;;;5.63;2.90;;;;;;;;;;4928059;28;20314;-85
2022/11/24 04:49:41;;;;;;;6.33;3.27;;;;;;;;;;4912541;29;20235;-85
2022/11/24 04:52:06;;;;;;;3.77;3.37;;;;;;;;;;4911825;28;20223;-86
2022/11/24 04:54:36;;;;;;;6.30;3.30;;;;;;;;;;4912394;29;20230;-85
2022/11/24 04:57:04;;;;;;;6.63;3.13;;;;;;;;;;4896736;29;20245;-84
2022/11/24 04:59:32;;;;;;;7.87;3.60;;;;;;;;;;4928622;29;20215;-85
2022/11/24 05:02:02;;;;;;;9.17;3.57;;;;;;;;;;4912201;29;20231;-86
2022/11/24 05:04:28;;;;;;;5.67;3.20;;;;;;;;;;4926793;29;20706;-85
2022/11/24 05:06:55;;;;;;;7.77;3.40;;;;;;;;;;4910932;29;20290;-85
2022/11/24 05:09:21;;;;;;;5.10;3.40;;;;;;;;;;4909303;28;20231;-86
2022/11/24 05:11:51;;;;;;;6.53;3.53;;;;;;;;;;4910054;29;20314;-84
2022/11/24 05:14:16;;;;;;;8.73;3.50;;;;;;;;;;4909226;28;20228;-87
2022/11/24 05:16:42;;;;;;;6.73;3.57;;;;;;;;;;4909524;29;20243;-85
2022/11/24 05:19:07;;;;;;;6.33;3.50;;;;;;;;;;4925071;28;20254;-85
2022/11/24 05:21:35;;;;;;;6.30;3.83;;;;;;;;;;4918265;29;20230;-87
2022/11/24 05:24:01;;;;;;;8.53;3.80;;;;;;;;;;4910987;29;20237;-86
2022/11/24 05:26:27;;;;;;;6.03;3.20;;;;;;;;;;4910297;29;20218;-86
2022/11/24 05:28:55;;;;;;;5.67;3.40;;;;;;;;;;4940063;29;20231;-83
2022/11/24 05:31:20;;;;;;;5.43;3.30;;;;;;;;;;4924987;28;20218;-84
2022/11/24 05:33:51;;;;;;;5.07;3.60;;;;;;;;;;4941429;29;20364;-83
2022/11/24 05:39:05;;;;;;;6.47;3.57;;;;;;;;;;4923053;29;20752;-84
2022/11/24 05:41:33;;;;;;;8.70;4.00;;;;;;;;;;4907507;29;20224;-86
2022/11/24 05:43:58;;;;;;;6.27;4.20;;;;;;;;;;4907509;29;20239;-85
2022/11/24 05:46:24;;;;;;;6.77;3.67;;;;;;;;;;4906459;29;20234;-86
2022/11/24 05:48:52;;;;;;;6.27;3.50;;;;;;;;;;4891533;29;20250;-86
2022/11/24 05:51:17;;;;;;;5.20;3.70;;;;;;;;;;4907254;29;20227;-86
2022/11/24 05:53:45;;;;;;;7.00;3.60;;;;;;;;;;4907081;29;20914;-85
2022/11/24 05:56:11;;;;;;;6.50;3.80;;;;;;;;;;4904866;29;20237;-86
2022/11/24 05:58:36;;;;;;;5.73;3.37;;;;;;;;;;4891314;29;20693;-84
2022/11/24 06:01:05;;;;;;;9.77;4.03;;;;;;;;;;4904701;29;20594;-83
2022/11/24 06:03:30;;;;;;;6.33;4.10;;;;;;;;;;4904692;29;20695;-84
2022/11/24 06:05:58;;;;;;;7.73;3.60;;;;;;;;;;4889504;29;20223;-84
2022/11/24 06:08:24;;;;;;;5.20;3.30;;;;;;;;;;4908083;28;20298;-84
2022/11/24 06:10:52;;;;;;;4.47;3.30;;;;;;;;;;4929016;29;20302;-85
2022/11/24 06:13:17;;;;;;;5.53;3.77;;;;;;;;;;4911044;28;20226;-85
2022/11/24 06:15:43;;;;;;;5.33;3.13;;;;;;;;;;4913058;29;20231;-83
2022/11/24 06:18:14;;;;;;;8.33;3.67;;;;;;;;;;4913972;28;20227;-85
2022/11/24 06:20:39;;;;;;;6.20;3.43;;;;;;;;;;4915150;29;20313;-83
2022/11/24 06:23:05;;;;;;;7.27;3.33;;;;;;;;;;4913535;28;20688;-85
2022/11/24 06:25:35;;;;;;;7.87;2.83;;;;;;;;;;4936335;29;20255;-84
2022/11/24 06:28:03;;;;;;;7.43;4.97;;;;;;;;;;4907817;29;20227;-81
2022/11/24 06:30:31;;;;;;;4.80;4.27;;;;;;;;;;4924639;29;20596;-83
2022/11/24 06:33:04;;;;;;;9.10;5.83;;;;;;;;;;4907791;29;20223;-83
2022/11/24 06:35:32;;;;;;;6.83;4.40;;;;;;;;;;4940741;29;20350;-84
2022/11/24 06:38:02;;;;;;;4.80;3.70;;;;;;;;;;4915339;28;20302;-84
2022/11/24 06:40:28;;;;;;;7.97;3.57;;;;;;;;;;4914101;28;20229;-81
2022/11/24 06:42:53;;;;;;;5.47;4.00;;;;;;;;;;4888662;29;20310;-84
2022/11/24 06:45:22;;;;;;;6.77;3.80;;;;;;;;;;4902225;28;20224;-85
2022/11/24 06:47:52;;;;;;;6.33;4.13;;;;;;;;;;4924144;28;20234;-86
2022/11/24 06:50:18;;;;;;;5.37;3.73;;;;;;;;;;4906565;28;20603;-87
2022/11/24 06:52:44;;;;;;;7.57;4.73;;;;;;;;;;4906313;29;20246;-87
2022/11/24 06:55:12;;;;;;;5.70;4.50;;;;;;;;;;4906907;28;20241;-86
2022/11/24 06:57:39;;;;;;;9.33;4.40;;;;;;;;;;4911249;29;20254;-86
2022/11/24 07:00:09;;;;;;;6.80;4.30;;;;;;;;;;4911823;28;20233;-84
2022/11/24 07:02:35;;;;;;;7.03;4.30;;;;;;;;;;4891262;29;20218;-85
2022/11/24 07:05:01;;;;;;;8.30;4.43;;;;;;;;;;4917782;28;20235;-84
2022/11/24 07:07:51;;;;;;;7.37;3.80;;;;;;;;;;4904826;29;20231;-87
2022/11/24 07:10:17;;;;;;;5.77;4.30;;;;;;;;;;4947941;28;20237;-86
2022/11/24 07:12:43;;;;;;;7.20;3.90;;;;;;;;;;4887479;29;20235;-84
2022/11/24 07:15:11;;;;;;;4.73;3.60;;;;;;;;;;4903140;28;20230;-88
2022/11/24 07:17:37;;;;;;;6.10;3.70;;;;;;;;;;4904047;29;20219;-87
2022/11/24 07:20:07;;;;;;;5.73;3.57;;;;;;;;;;4913030;28;20230;-87
2022/11/24 07:22:35;;;;;;;7.67;4.00;;;;;;;;;;4901796;29;20227;-85
2022/11/24 07:25:00;;;;;;;6.60;3.67;;;;;;;;;;4921102;28;20689;-86
2022/11/24 07:27:27;;;;;;;6.83;4.03;;;;;;;;;;4912937;28;20222;-85
2022/11/24 07:30:06;;;;;;;6.00;4.10;;;;;;;;;;4901598;28;20226;-85
2022/11/24 07:32:34;;;;;;;6.60;3.83;;;;;;;;;;4922835;28;20230;-86
2022/11/24 07:35:00;;;;;;;11.17;4.17;;;;;;;;;;4901474;29;20578;-85
2022/11/24 07:37:37;;;;;;;7.57;4.13;;;;;;;;;;4910825;29;20235;-86
2022/11/24 07:40:05;;;;;;;9.87;3.53;;;;;;;;;;4915573;28;20262;-85
2022/11/24 07:42:31;;;;;;;5.43;3.83;;;;;;;;;;4923920;29;20234;-84
2022/11/24 07:44:59;;;;;;;5.23;3.60;;;;;;;;;;4914953;28;20219;-86
2022/11/24 07:47:27;;;;;;;7.17;3.80;;;;;;;;;;4924749;28;20218;-86
2022/11/24 07:49:55;;;;;;;6.33;3.80;;;;;;;;;;4918603;29;20218;-86
2022/11/24 07:52:22;;;;;;;6.67;4.17;;;;;;;;;;4929201;28;20289;-86
2022/11/24 07:54:48;;;;;;;4.50;3.40;;;;;;;;;;4922416;29;20242;-85
2022/11/24 07:57:13;;;;;;;5.70;3.63;;;;;;;;;;4919065;28;20223;-84
2022/11/24 07:59:41;;;;;;;9.77;4.07;;;;;;;;;;4913978;29;20236;-85
2022/11/24 08:02:09;;;;;;;6.50;4.00;;;;;;;;;;4898776;28;20724;-87
2022/11/24 08:04:35;;;;;;;6.47;4.00;;;;;;;;;;4892293;29;20254;-87
2022/11/24 08:07:03;;;;;;;5.27;4.17;;;;;;;;;;4919557;29;20230;-87
2022/11/24 08:09:29;;;;;;;8.97;5.80;;;;;;;;;;4952411;28;20230;-86
2022/11/24 08:11:54;;;;;;;9.60;4.90;;;;;;;;;;4921826;29;20326;-86
2022/11/24 08:14:22;;;;;;;5.77;3.60;;;;;;;;;;4926392;28;20488;-86
2022/11/24 08:16:48;;;;;;;8.00;3.83;;;;;;;;;;4924833;29;20234;-87
2022/11/24 08:19:33;;;;;;;6.53;3.67;;;;;;;;;;4922653;28;20249;-85
2022/11/24 08:22:04;;;;;;;8.33;3.97;;;;;;;;;;4912647;29;20611;-86
2022/11/24 08:24:35;;;;;;;7.97;3.70;;;;;;;;;;4922505;28;20641;-86
2022/11/24 08:27:03;;;;;;;7.37;4.00;;;;;;;;;;4906138;23;20231;-75
2022/11/24 08:29:31;;;;;;;9.60;4.47;;;;;;;;;;4902076;29;20231;-78
2022/11/24 08:31:57;;;;;;;8.13;3.93;;;;;;;;;;4926758;28;20245;-78
2022/11/24 08:34:23;;;;;;;6.63;3.87;;;;;;;;;;4904439;28;20222;-78
2022/11/24 08:36:52;;;;;;;5.70;3.93;;;;;;;;;;4922525;28;20238;-77
2022/11/24 08:39:19;;;;;;;6.00;3.83;;;;;;;;;;4940631;28;20265;-78
2022/11/24 08:41:45;;;;;;;9.43;4.10;;;;;;;;;;4941129;29;20246;-78
2022/11/24 08:44:14;;;;;;;8.00;5.67;;;;;;;;;;4923918;28;20282;-76
2022/11/24 08:46:45;;;;;;;10.13;5.63;;;;;;;;;;4939412;28;20233;-78
2022/11/24 08:49:13;;;;;;;8.33;4.97;;;;;;;;;;4937222;28;20258;-78
2022/11/24 08:51:39;;;;;;;5.17;4.10;;;;;;;;;;4906506;28;20229;-80
2022/11/24 08:54:08;;;;;;;8.77;4.53;;;;;;;;;;4911701;28;20234;-78
2022/11/24 08:56:36;;;;;;;6.47;3.93;;;;;;;;;;4906555;28;20226;-79
2022/11/24 08:59:02;;;;;;;8.83;3.20;;;;;;;;;;4921444;29;20230;-79
2022/11/24 09:01:29;;;;;;;9.00;3.23;;;;;;;;;;4904713;29;20228;-77
2022/11/24 09:03:57;;;;;;;6.43;3.00;;;;;;;;;;4954408;28;20227;-79
2022/11/24 09:06:29;;;;;;;5.67;2.87;;;;;;;;;;4905635;28;20226;-79
2022/11/24 09:09:00;;;;;;;6.30;3.17;;;;;;;;;;4916841;29;20243;-80
2022/11/24 09:11:32;;;;;;;6.47;3.03;;;;;;;;;;4940133;28;20222;-79
2022/11/24 09:14:00;;;;;;;9.83;3.27;;;;;;;;;;4917947;29;20713;-79
2022/11/24 09:16:27;;;;;;;8.87;3.53;;;;;;;;;;4924158;28;20222;-79
2022/11/24 09:18:55;;;;;;;8.17;3.27;;;;;;;;;;4910996;29;20306;-78
2022/11/24 09:21:20;;;;;;;7.17;3.30;;;;;;;;;;4939846;28;20683;-79
2022/11/24 09:23:52;;;;;;;12.20;4.40;;;;;;;;;;4926725;29;20235;-77
2022/11/24 09:26:33;;;;;;;10.27;3.80;;;;;;;;;;4908991;28;20230;-75
2022/11/24 09:28:59;;;;;;;8.03;3.30;;;;;;;;;;4933488;28;20254;-77
2022/11/24 09:31:27;;;;;;;11.50;3.93;;;;;;;;;;4922386;28;20211;-78
2022/11/24 09:33:55;;;;;;;7.07;2.97;;;;;;;;;;4914273;29;20740;-78
2022/11/24 09:36:25;;;;;;;7.30;2.80;;;;;;;;;;4931370;29;20223;-77
2022/11/24 09:38:51;;;;;;;10.97;3.17;;;;;;;;;;4904406;29;20223;-77
2022/11/24 09:41:17;;;;;;;6.97;3.17;;;;;;;;;;4944084;28;20794;-78
2022/11/24 09:44:07;;;;;;;9.97;3.40;;;;;;;;;;4939662;29;20233;-78
2022/11/24 09:46:52;;;;;;;11.37;3.90;;;;;;;;;;4958246;28;20706;-79
2022/11/24 09:49:35;;;;;;;8.50;2.90;;;;;;;;;;4922222;28;20330;-79
2022/11/24 09:52:08;;;;;;;7.47;3.30;;;;;;;;;;4896372;29;20267;-79
2022/11/24 09:54:33;;;;;;;8.60;2.90;;;;;;;;;;4923804;29;20234;-79
2022/11/24 09:57:00;;;;;;;10.50;3.33;;;;;;;;;;4924186;28;20239;-79
2022/11/24 09:59:29;;;;;;;12.07;3.87;;;;;;;;;;4910889;28;20234;-79
2022/11/24 10:01:55;;;;;;;9.57;3.00;;;;;;;;;;4923567;28;20780;-80
2022/11/24 10:04:27;;;;;;;9.33;3.27;;;;;;;;;;4899390;28;20697;-78
2022/11/24 10:07:21;;;;;;;6.07;2.53;;;;;;;;;;4937230;28;20313;-78
2022/11/24 10:09:58;;;;;;;7.17;2.53;;;;;;;;;;4938240;29;20235;-78
2022/11/24 10:12:46;;;;;;;9.37;3.10;;;;;;;;;;4928119;29;20231;-78
2022/11/24 10:15:18;;;;;;;9.73;2.97;;;;;;;;;;4956051;28;20214;-78
2022/11/24 10:18:11;;;;;;;6.30;2.63;;;;;;;;;;4937752;29;20776;-79
2022/11/24 10:21:14;;;;;;;9.13;3.00;;;;;;;;;;4954427;28;20230;-79
2022/11/24 10:24:02;;;;;;;11.00;3.50;;;;;;;;;;4935042;29;20234;-78
2022/11/24 10:26:55;;;;;;;12.40;2.60;;;;;;;;;;4935965;29;20779;-78
2022/11/24 10:29:38;;;;;;;4.40;2.33;;;;;;;;;;4914486;28;20226;-78
2022/11/24 10:32:06;;;;;;;4.07;2.30;;;;;;;;;;4922372;28;20241;-79
2022/11/24 10:34:47;;;;;;;9.77;2.83;;;;;;;;;;4906198;29;20225;-77
2022/11/24 10:37:33;;;;;;;7.73;2.60;;;;;;;;;;4923392;28;20223;-79
2022/11/24 10:40:04;;;;;;;10.30;3.20;;;;;;;;;;4958296;28;20223;-79
2022/11/24 10:42:32;;;;;;;10.03;3.13;;;;;;;;;;4930694;29;20231;-80
2022/11/24 10:45:21;;;;;;;6.73;2.60;;;;;;;;;;4939236;29;20218;-80
2022/11/24 10:47:47;;;;;;;5.63;2.70;;;;;;;;;;4921045;29;20238;-79
2022/11/24 10:50:21;;;;;;;10.77;3.13;;;;;;;;;;4923165;28;20241;-80
2022/11/24 10:52:57;;;;;;;8.83;2.80;;;;;;;;;;4939398;28;20219;-79
2022/11/24 10:55:22;;;;;;;8.20;3.00;;;;;;;;;;4926377;28;20185;-78
2022/11/24 10:57:52;;;;;;;6.10;2.87;;;;;;;;;;4934214;28;21282;-78
2022/11/24 11:00:18;;;;;;;12.73;3.17;;;;;;;;;;4931577;28;20219;-78
2022/11/24 11:02:43;;;;;;;7.90;3.03;;;;;;;;;;4936191;29;20236;-79
2022/11/24 11:05:30;;;;;;;10.03;2.90;;;;;;;;;;4907386;28;20234;-80
2022/11/24 11:08:29;;;;;;;6.47;3.20;;;;;;;;;;4955058;28;20223;-81
2022/11/24 11:11:26;;;;;;;8.90;3.10;;;;;;;;;;4903268;29;20237;-80
2022/11/24 11:14:30;;;;;;;10.63;2.70;;;;;;;;;;4943211;28;20229;-80
2022/11/24 11:16:58;;;;;;;6.50;3.00;;;;;;;;;;4948638;28;20242;-78
2022/11/24 11:19:42;;;;;;;28.70;18.03;;;;;;;;;;4913465;29;20223;-78
2022/11/24 11:22:10;;;;;;;12.83;5.37;;;;;;;;;;4941842;28;20701;-79
2022/11/24 11:24:42;;;;;;;10.43;3.23;;;;;;;;;;4960223;28;20271;-77
2022/11/24 11:27:21;;;;;;;11.00;3.80;;;;;;;;;;4948853;28;21439;-79
2022/11/24 11:29:48;;;;;;;10.07;3.27;;;;;;;;;;4947579;29;20238;-78
2022/11/24 11:32:24;;;;;;;11.07;3.30;;;;;;;;;;4931209;28;20753;-77
2022/11/24 11:34:55;;;;;;;13.67;3.43;;;;;;;;;;4949227;28;20226;-78
2022/11/24 11:37:24;;;;;;;11.10;3.47;;;;;;;;;;4915392;29;20251;-77
2022/11/24 11:39:55;;;;;;;9.73;3.13;;;;;;;;;;4960597;28;20275;-76
2022/11/24 11:42:36;;;;;;;6.13;2.77;;;;;;;;;;4931939;28;20328;-77
2022/11/24 11:45:14;;;;;;;19.73;13.83;;;;;;;;;;4908071;28;20246;-76
2022/11/24 11:47:49;;;;;;;7.13;3.77;;;;;;;;;;4966891;28;20771;-77
2022/11/24 11:50:16;;;;;;;8.93;3.30;;;;;;;;;;4926716;28;20290;-78
2022/11/24 11:53:02;;;;;;;7.83;3.53;;;;;;;;;;4934892;29;20237;-77
2022/11/24 11:55:37;;;;;;;9.90;3.47;;;;;;;;;;4947869;29;20249;-78
2022/11/24 11:58:07;;;;;;;9.40;2.90;;;;;;;;;;4963424;28;20226;-78
2022/11/24 12:00:37;;;;;;;7.77;2.93;;;;;;;;;;4948221;29;20236;-77
2022/11/24 12:03:36;;;;;;;9.60;3.70;;;;;;;;;;4939687;28;20767;-79
2022/11/24 12:06:34;;;;;;;8.13;3.27;;;;;;;;;;4962536;28;20231;-79
2022/11/24 12:09:29;;;;;;;8.70;3.37;;;;;;;;;;4927140;29;20243;-77
2022/11/24 12:12:20;;;;;;;10.87;3.63;;;;;;;;;;4927263;28;20254;-78
2022/11/24 12:14:56;;;;;;;7.30;3.53;;;;;;;;;;4958846;28;20229;-77
2022/11/24 12:17:45;;;;;;;11.77;3.33;;;;;;;;;;4925182;28;20226;-78
2022/11/24 12:20:28;;;;;;;6.30;3.23;;;;;;;;;;4946962;28;20282;-78
2022/11/24 12:22:58;;;;;;;7.50;3.00;;;;;;;;;;4966848;28;20217;-78
2022/11/24 12:25:31;;;;;;;7.97;3.53;;;;;;;;;;4946204;28;20241;-78
2022/11/24 12:28:11;;;;;;;7.47;3.90;;;;;;;;;;4970324;28;20234;-77
2022/11/24 12:30:45;;;;;;;8.63;3.40;;;;;;;;;;4964734;28;20373;-78
2022/11/24 12:33:23;;;;;;;5.93;2.70;;;;;;;;;;4909223;28;20258;-77
2022/11/24 12:35:53;;;;;;;6.40;3.33;;;;;;;;;;4945638;29;20229;-75
2022/11/24 12:38:53;;;;;;;9.13;3.40;;;;;;;;;;4940809;28;20219;-77
2022/11/24 12:41:24;;;;;;;7.43;2.83;;;;;;;;;;4920220;29;20242;-78
2022/11/24 12:43:57;;;;;;;8.10;3.57;;;;;;;;;;4950002;28;20238;-76
2022/11/24 12:46:47;;;;;;;8.27;3.53;;;;;;;;;;4948844;28;22474;-77
2022/11/24 12:49:27;;;;;;;7.43;2.90;;;;;;;;;;4918126;28;20253;-77
2022/11/24 12:52:02;;;;;;;8.13;2.77;;;;;;;;;;4941944;28;20234;-78
2022/11/24 12:54:38;;;;;;;5.80;2.77;;;;;;;;;;4937248;29;20589;-79
2022/11/24 12:57:20;;;;;;;7.53;2.93;;;;;;;;;;4953114;28;20234;-79
2022/11/24 13:00:05;;;;;;;5.80;2.60;;;;;;;;;;4945513;29;20231;-79
2022/11/24 13:02:42;;;;;;;4.87;2.20;;;;;;;;;;4937521;29;20281;-78
2022/11/24 13:05:36;;;;;;;5.33;2.43;;;;;;;;;;4906161;28;20238;-79
2022/11/24 13:08:06;;;;;;;5.83;2.13;;;;;;;;;;4948633;28;20250;-77
2022/11/24 13:10:36;;;;;;;6.60;2.80;;;;;;;;;;4929136;29;20223;-77
2022/11/24 13:13:13;;;;;;;4.77;2.27;;;;;;;;;;4928767;28;20226;-77
2022/11/24 13:15:54;;;;;;;6.03;2.33;;;;;;;;;;4941621;29;20223;-78
2022/11/24 13:18:42;;;;;;;6.37;2.50;;;;;;;;;;4954130;28;20253;-77
2022/11/24 13:21:29;;;;;;;5.80;2.27;;;;;;;;;;4909702;28;20235;-78
2022/11/24 13:23:59;;;;;;;6.33;2.50;;;;;;;;;;4957585;28;20245;-77
2022/11/24 13:26:45;;;;;;;4.00;2.20;;;;;;;;;;4924904;28;20746;-75
2022/11/24 13:29:29;;;;;;;4.37;2.00;;;;;;;;;;4927368;28;20317;-76
2022/11/24 13:32:00;;;;;;;7.80;2.70;;;;;;;;;;4964418;28;20237;-78
2022/11/24 13:34:53;;;;;;;4.20;2.43;;;;;;;;;;4950892;29;20222;-79
2022/11/24 13:37:24;;;;;;;5.47;2.97;;;;;;;;;;4932836;29;20247;-79
2022/11/24 13:39:53;;;;;;;5.50;2.80;;;;;;;;;;4951293;29;20732;-77
2022/11/24 13:42:28;;;;;;;9.87;3.23;;;;;;;;;;4943536;28;20247;-82
2022/11/24 13:45:00;;;;;;;8.93;3.07;;;;;;;;;;4905356;29;20237;-77
2022/11/24 13:47:42;;;;;;;6.97;3.13;;;;;;;;;;4922348;28;20647;-77
2022/11/24 13:50:09;;;;;;;4.50;2.50;;;;;;;;;;4934981;28;20227;-78
2022/11/24 13:52:37;;;;;;;4.30;2.40;;;;;;;;;;4938185;29;20731;-76
2022/11/24 13:55:11;;;;;;;7.03;4.33;;;;;;;;;;4953267;28;20234;-79
2022/11/24 13:57:44;;;;;;;9.30;4.90;;;;;;;;;;4940129;28;20226;-79
2022/11/24 14:00:32;;;;;;;10.57;6.37;;;;;;;;;;4908045;28;20222;-78
2022/11/24 14:03:02;;;;;;;6.90;5.80;;;;;;;;;;4921934;29;20297;-77
2022/11/24 14:05:40;;;;;;;6.03;3.47;;;;;;;;;;4913041;29;20638;-80
2022/11/24 14:08:06;;;;;;;6.13;2.90;;;;;;;;;;4948511;28;20229;-79
2022/11/24 14:10:36;;;;;;;3.47;2.47;;;;;;;;;;4907442;29;20225;-79
2022/11/24 14:13:22;;;;;;;4.93;2.50;;;;;;;;;;4907584;29;20235;-80
2022/11/24 14:16:04;;;;;;;7.70;3.03;;;;;;;;;;4957250;28;20242;-78
2022/11/24 14:18:30;;;;;;;3.57;2.60;;;;;;;;;;4936263;29;20234;-78
2022/11/24 14:20:57;;;;;;;4.37;2.53;;;;;;;;;;4935978;28;20234;-75
2022/11/24 14:23:25;;;;;;;4.40;2.13;;;;;;;;;;4903153;28;20231;-76
2022/11/24 14:25:53;;;;;;;5.30;2.63;;;;;;;;;;4903097;29;20265;-78
2022/11/24 14:28:23;;;;;;;5.80;2.90;;;;;;;;;;4954185;28;20247;-77
2022/11/24 14:30:51;;;;;;;4.47;2.87;;;;;;;;;;4893382;29;20776;-77
2022/11/24 14:33:18;;;;;;;4.27;2.67;;;;;;;;;;4905568;28;20708;-78
2022/11/24 14:35:45;;;;;;;3.43;2.07;;;;;;;;;;4948427;28;20362;-78
2022/11/24 14:38:14;;;;;;;6.10;2.70;;;;;;;;;;4954250;28;20305;-79
2022/11/24 14:40:40;;;;;;;3.60;2.37;;;;;;;;;;4938150;28;20354;-77
2022/11/24 14:43:29;;;;;;;5.30;2.43;;;;;;;;;;4937382;28;20842;-79
2022/11/24 14:45:59;;;;;;;4.80;2.73;;;;;;;;;;4921018;28;20239;-79
2022/11/24 14:48:27;;;;;;;4.33;2.40;;;;;;;;;;4951442;28;20258;-80
2022/11/24 14:50:53;;;;;;;4.03;2.03;;;;;;;;;;4934880;29;20230;-75
2022/11/24 14:53:23;;;;;;;3.33;2.03;;;;;;;;;;4931934;28;20285;-75
2022/11/24 14:56:08;;;;;;;2.70;1.93;;;;;;;;;;4917602;29;20715;-74
2022/11/24 14:58:36;;;;;;;3.47;3.07;;;;;;;;;;4914730;29;20603;-76
2022/11/24 15:01:10;;;;;;;4.53;2.53;;;;;;;;;;4951133;28;20226;-78
2022/11/24 15:03:35;;;;;;;3.67;2.40;;;;;;;;;;4953301;28;20313;-78
2022/11/24 15:06:03;;;;;;;4.77;2.43;;;;;;;;;;4933317;28;20855;-78